sensor_id;sensor_type;location;lat;lon;timestamp;P1;durP1;ratioP1;P2;durP2;ratioP2
22675;SDS011;12521;43.310;21.876;2022-10-23T00:01:42;36.0;;;28.0;;
22675;SDS011;12521;43.310;21.876;2022-10-23T00:06:20;36.0;;;28.0;;
22675;SDS011;12521;43.310;21.876;2022-10-23T00:10:58;32.0;;;26.0;;
22675;SDS011;12521;43.310;21.876;2022-10-23T00:15:35;32.0;;;26.0;;
22675;SDS011;12521;43.310;21.876;2022-10-23T00:20:13;30.0;;;22.0;;
22675;SDS011;12521;43.310;21.876;2022-10-23T00:24:52;30.0;;;22.0;;
22675;SDS011;12521;43.310;21.876;2022-10-23T00:29:29;30.0;;;22.0;;
22675;SDS011;12521;43.310;21.876;2022-10-23T00:34:06;28.0;;;19.0;;
22675;SDS011;12521;43.310;21.876;2022-10-23T00:38:42;28.0;;;19.0;;
22675;SDS011;12521;43.310;21.876;2022-10-23T00:43:23;26.0;;;18.0;;
22675;SDS011;12521;43.310;21.876;2022-10-23T00:48:08;26.0;;;18.0;;
22675;SDS011;12521;43.310;21.876;2022-10-23T00:52:47;23.0;;;18.0;;
22675;SDS011;12521;43.310;21.876;2022-10-23T00:57:39;23.0;;;18.0;;
22675;SDS011;12521;43.310;21.876;2022-10-23T01:02:26;20.0;;;16.0;;
22675;SDS011;12521;43.310;21.876;2022-10-23T01:07:05;20.0;;;16.0;;
22675;SDS011;12521;43.310;21.876;2022-10-23T01:12:32;16.0;;;13.0;;
22675;SDS011;12521;43.310;21.876;2022-10-23T01:17:51;16.0;;;13.0;;
22675;SDS011;12521;43.310;21.876;2022-10-23T01:23:12;15.0;;;13.0;;
22675;SDS011;12521;43.310;21.876;2022-10-23T01:28:53;15.0;;;13.0;;
22675;SDS011;12521;43.310;21.876;2022-10-23T01:33:54;14.0;;;13.0;;
22675;SDS011;12521;43.310;21.876;2022-10-23T01:38:52;14.0;;;13.0;;
22675;SDS011;12521;43.310;21.876;2022-10-23T01:43:50;16.0;;;13.0;;
22675;SDS011;12521;43.310;21.876;2022-10-23T01:48:51;16.0;;;13.0;;
22675;SDS011;12521;43.310;21.876;2022-10-23T01:53:36;17.0;;;13.0;;
22675;SDS011;12521;43.310;21.876;2022-10-23T01:58:30;17.0;;;13.0;;
22675;SDS011;12521;43.310;21.876;2022-10-23T02:03:24;16.0;;;12.0;;
22675;SDS011;12521;43.310;21.876;2022-10-23T02:08:17;16.0;;;12.0;;
22675;SDS011;12521;43.310;21.876;2022-10-23T02:12:55;14.0;;;12.0;;
22675;SDS011;12521;43.310;21.876;2022-10-23T02:17:56;14.0;;;12.0;;
22675;SDS011;12521;43.310;21.876;2022-10-23T02:23:16;14.0;;;12.0;;
22675;SDS011;12521;43.310;21.876;2022-10-23T02:28:14;14.0;;;12.0;;
22675;SDS011;12521;43.310;21.876;2022-10-23T02:33:11;15.0;;;12.0;;
22675;SDS011;12521;43.310;21.876;2022-10-23T02:37:53;15.0;;;12.0;;
22675;SDS011;12521;43.310;21.876;2022-10-23T02:42:38;14.0;;;12.0;;
22675;SDS011;12521;43.310;21.876;2022-10-23T02:47:41;14.0;;;12.0;;
22675;SDS011;12521;43.310;21.876;2022-10-23T02:52:48;13.0;;;12.0;;
22675;SDS011;12521;43.310;21.876;2022-10-23T02:57:56;13.0;;;12.0;;
22675;SDS011;12521;43.310;21.876;2022-10-23T03:02:59;14.0;;;13.0;;
22675;SDS011;12521;43.310;21.876;2022-10-23T03:07:56;14.0;;;13.0;;
22675;SDS011;12521;43.310;21.876;2022-10-23T03:12:36;16.0;;;14.0;;
22675;SDS011;12521;43.310;21.876;2022-10-23T03:17:14;16.0;;;14.0;;
22675;SDS011;12521;43.310;21.876;2022-10-23T03:21:51;16.0;;;12.0;;
22675;SDS011;12521;43.310;21.876;2022-10-23T03:26:29;16.0;;;12.0;;
22675;SDS011;12521;43.310;21.876;2022-10-23T03:31:06;16.0;;;11.0;;
22675;SDS011;12521;43.310;21.876;2022-10-23T03:35:43;16.0;;;11.0;;
22675;SDS011;12521;43.310;21.876;2022-10-23T03:40:22;14.0;;;10.0;;
22675;SDS011;12521;43.310;21.876;2022-10-23T03:44:59;14.0;;;10.0;;
22675;SDS011;12521;43.310;21.876;2022-10-23T03:49:36;14.0;;;10.0;;
22675;SDS011;12521;43.310;21.876;2022-10-23T03:54:14;13.0;;;10.0;;
22675;SDS011;12521;43.310;21.876;2022-10-23T03:58:51;13.0;;;10.0;;
22675;SDS011;12521;43.310;21.876;2022-10-23T04:03:28;14.0;;;10.0;;
22675;SDS011;12521;43.310;21.876;2022-10-23T04:08:04;14.0;;;10.0;;
22675;SDS011;12521;43.310;21.876;2022-10-23T04:12:41;15.0;;;10.0;;
22675;SDS011;12521;43.310;21.876;2022-10-23T04:17:17;15.0;;;10.0;;
22675;SDS011;12521;43.310;21.876;2022-10-23T04:21:54;15.0;;;10.0;;
22675;SDS011;12521;43.310;21.876;2022-10-23T04:26:31;15.0;;;10.0;;
22675;SDS011;12521;43.310;21.876;2022-10-23T04:31:07;15.0;;;11.0;;
22675;SDS011;12521;43.310;21.876;2022-10-23T04:35:44;15.0;;;11.0;;
22675;SDS011;12521;43.310;21.876;2022-10-23T04:40:21;16.0;;;12.0;;
22675;SDS011;12521;43.310;21.876;2022-10-23T04:44:57;16.0;;;12.0;;
22675;SDS011;12521;43.310;21.876;2022-10-23T04:49:34;16.0;;;12.0;;
22675;SDS011;12521;43.310;21.876;2022-10-23T04:54:10;17.0;;;13.0;;
22675;SDS011;12521;43.310;21.876;2022-10-23T04:58:47;17.0;;;13.0;;
22675;SDS011;12521;43.310;21.876;2022-10-23T05:03:24;18.0;;;13.0;;
22675;SDS011;12521;43.310;21.876;2022-10-23T05:08:02;18.0;;;13.0;;
22675;SDS011;12521;43.310;21.876;2022-10-23T05:12:39;20.0;;;13.0;;
22675;SDS011;12521;43.310;21.876;2022-10-23T05:17:16;20.0;;;13.0;;
22675;SDS011;12521;43.310;21.876;2022-10-23T05:22:08;18.0;;;14.0;;
22675;SDS011;12521;43.310;21.876;2022-10-23T05:26:49;18.0;;;14.0;;
22675;SDS011;12521;43.310;21.876;2022-10-23T05:31:27;17.0;;;15.0;;
22675;SDS011;12521;43.310;21.876;2022-10-23T05:36:09;17.0;;;15.0;;
22675;SDS011;12521;43.310;21.876;2022-10-23T05:40:51;19.0;;;15.0;;
22675;SDS011;12521;43.310;21.876;2022-10-23T05:45:29;19.0;;;15.0;;
22675;SDS011;12521;43.310;21.876;2022-10-23T05:50:06;19.0;;;15.0;;
22675;SDS011;12521;43.310;21.876;2022-10-23T05:54:44;21.0;;;15.0;;
22675;SDS011;12521;43.310;21.876;2022-10-23T05:59:20;21.0;;;15.0;;
22675;SDS011;12521;43.310;21.876;2022-10-23T06:03:59;18.0;;;15.0;;
22675;SDS011;12521;43.310;21.876;2022-10-23T06:08:38;18.0;;;15.0;;
22675;SDS011;12521;43.310;21.876;2022-10-23T06:13:15;16.0;;;15.0;;
22675;SDS011;12521;43.310;21.876;2022-10-23T06:17:52;16.0;;;15.0;;
22675;SDS011;12521;43.310;21.876;2022-10-23T06:22:29;21.0;;;17.0;;
22675;SDS011;12521;43.310;21.876;2022-10-23T06:27:06;21.0;;;17.0;;
22675;SDS011;12521;43.310;21.876;2022-10-23T06:31:43;26.0;;;19.0;;
22675;SDS011;12521;43.310;21.876;2022-10-23T06:36:21;26.0;;;19.0;;
22675;SDS011;12521;43.310;21.876;2022-10-23T06:41:01;34.0;;;23.0;;
22675;SDS011;12521;43.310;21.876;2022-10-23T06:45:47;34.0;;;23.0;;
22675;SDS011;12521;43.310;21.876;2022-10-23T06:50:24;34.0;;;23.0;;
22675;SDS011;12521;43.310;21.876;2022-10-23T06:55:03;41.0;;;27.0;;
22675;SDS011;12521;43.310;21.876;2022-10-23T06:59:43;41.0;;;27.0;;
22675;SDS011;12521;43.310;21.876;2022-10-23T07:04:20;36.0;;;24.0;;
22675;SDS011;12521;43.310;21.876;2022-10-23T07:08:57;36.0;;;24.0;;
22675;SDS011;12521;43.310;21.876;2022-10-23T07:13:35;31.0;;;22.0;;
22675;SDS011;12521;43.310;21.876;2022-10-23T07:18:15;31.0;;;22.0;;
22675;SDS011;12521;43.310;21.876;2022-10-23T07:22:52;32.0;;;22.0;;
22675;SDS011;12521;43.310;21.876;2022-10-23T07:27:34;32.0;;;22.0;;
22675;SDS011;12521;43.310;21.876;2022-10-23T07:32:14;32.0;;;21.0;;
22675;SDS011;12521;43.310;21.876;2022-10-23T07:36:50;32.0;;;21.0;;
22675;SDS011;12521;43.310;21.876;2022-10-23T07:41:27;30.0;;;22.0;;
22675;SDS011;12521;43.310;21.876;2022-10-23T07:46:04;30.0;;;22.0;;
22675;SDS011;12521;43.310;21.876;2022-10-23T07:50:41;27.0;;;22.0;;
22675;SDS011;12521;43.310;21.876;2022-10-23T07:55:18;27.0;;;22.0;;
22675;SDS011;12521;43.310;21.876;2022-10-23T07:59:54;27.0;;;22.0;;
22675;SDS011;12521;43.310;21.876;2022-10-23T08:04:31;24.0;;;20.0;;
22675;SDS011;12521;43.310;21.876;2022-10-23T08:09:07;24.0;;;20.0;;
22675;SDS011;12521;43.310;21.876;2022-10-23T08:13:44;21.0;;;19.0;;
22675;SDS011;12521;43.310;21.876;2022-10-23T08:18:20;21.0;;;19.0;;
22675;SDS011;12521;43.310;21.876;2022-10-23T08:22:57;21.0;;;18.0;;
22675;SDS011;12521;43.310;21.876;2022-10-23T08:27:34;21.0;;;18.0;;
22675;SDS011;12521;43.310;21.876;2022-10-23T08:32:10;21.0;;;17.0;;
22675;SDS011;12521;43.310;21.876;2022-10-23T08:36:47;21.0;;;17.0;;
22675;SDS011;12521;43.310;21.876;2022-10-23T08:41:25;20.0;;;15.0;;
22675;SDS011;12521;43.310;21.876;2022-10-23T08:46:22;20.0;;;15.0;;
22675;SDS011;12521;43.310;21.876;2022-10-23T08:51:24;18.0;;;13.0;;
22675;SDS011;12521;43.310;21.876;2022-10-23T08:56:26;18.0;;;13.0;;
22675;SDS011;12521;43.310;21.876;2022-10-23T09:01:29;16.0;;;12.0;;
22675;SDS011;12521;43.310;21.876;2022-10-23T09:06:35;16.0;;;12.0;;
22675;SDS011;12521;43.310;21.876;2022-10-23T09:12:07;13.0;;;11.0;;
22675;SDS011;12521;43.310;21.876;2022-10-23T09:17:01;13.0;;;11.0;;
22675;SDS011;12521;43.310;21.876;2022-10-23T09:22:03;15.0;;;12.0;;
22675;SDS011;12521;43.310;21.876;2022-10-23T09:26:43;15.0;;;12.0;;
22675;SDS011;12521;43.310;21.876;2022-10-23T09:31:25;17.0;;;14.0;;
22675;SDS011;12521;43.310;21.876;2022-10-23T09:36:02;17.0;;;14.0;;
22675;SDS011;12521;43.310;21.876;2022-10-23T09:40:57;16.0;;;12.0;;
22675;SDS011;12521;43.310;21.876;2022-10-23T09:45:55;16.0;;;12.0;;
22675;SDS011;12521;43.310;21.876;2022-10-23T09:50:41;16.0;;;11.0;;
22675;SDS011;12521;43.310;21.876;2022-10-23T09:55:32;16.0;;;11.0;;
22675;SDS011;12521;43.310;21.876;2022-10-23T10:00:14;16.0;;;11.0;;
22675;SDS011;12521;43.310;21.876;2022-10-23T10:05:13;18.0;;;12.0;;
22675;SDS011;12521;43.310;21.876;2022-10-23T10:10:12;18.0;;;12.0;;
22675;SDS011;12521;43.310;21.876;2022-10-23T10:14:53;19.0;;;13.0;;
22675;SDS011;12521;43.310;21.876;2022-10-23T10:20:06;19.0;;;13.0;;
22675;SDS011;12521;43.310;21.876;2022-10-23T10:25:41;16.0;;;12.0;;
22675;SDS011;12521;43.310;21.876;2022-10-23T10:31:01;13.0;;;12.0;;
22675;SDS011;12521;43.310;21.876;2022-10-23T10:36:26;13.0;;;12.0;;
22675;SDS011;12521;43.310;21.876;2022-10-23T10:41:48;14.0;;;12.0;;
22675;SDS011;12521;43.310;21.876;2022-10-23T10:47:08;14.0;;;12.0;;
22675;SDS011;12521;43.310;21.876;2022-10-23T10:52:06;16.0;;;13.0;;
22675;SDS011;12521;43.310;21.876;2022-10-23T10:57:20;16.0;;;13.0;;
22675;SDS011;12521;43.310;21.876;2022-10-23T11:02:20;15.0;;;12.0;;
22675;SDS011;12521;43.310;21.876;2022-10-23T11:07:21;15.0;;;12.0;;
22675;SDS011;12521;43.310;21.876;2022-10-23T11:12:23;14.0;;;11.0;;
22675;SDS011;12521;43.310;21.876;2022-10-23T11:17:04;14.0;;;11.0;;
22675;SDS011;12521;43.310;21.876;2022-10-23T11:22:15;16.0;;;12.0;;
22675;SDS011;12521;43.310;21.876;2022-10-23T11:27:33;16.0;;;12.0;;
22675;SDS011;12521;43.310;21.876;2022-10-23T11:35:30;17.0;;;13.0;;
22675;SDS011;12521;43.310;21.876;2022-10-23T11:40:52;17.0;;;13.0;;
22675;SDS011;12521;43.310;21.876;2022-10-23T11:45:56;17.0;;;13.0;;
22675;SDS011;12521;43.310;21.876;2022-10-23T12:05:29;18.0;;;15.0;;
22675;SDS011;12521;43.310;21.876;2022-10-23T12:10:30;18.0;;;15.0;;
22675;SDS011;12521;43.310;21.876;2022-10-23T12:15:23;18.0;;;15.0;;
22675;SDS011;12521;43.310;21.876;2022-10-23T12:20:27;18.0;;;15.0;;
22675;SDS011;12521;43.310;21.876;2022-10-23T12:25:40;16.0;;;12.0;;
22675;SDS011;12521;43.310;21.876;2022-10-23T12:31:20;15.0;;;10.0;;
22675;SDS011;12521;43.310;21.876;2022-10-23T12:36:58;15.0;;;10.0;;
22675;SDS011;12521;43.310;21.876;2022-10-23T12:42:26;18.0;;;12.0;;
22675;SDS011;12521;43.310;21.876;2022-10-23T12:47:06;18.0;;;12.0;;
22675;SDS011;12521;43.310;21.876;2022-10-23T12:51:59;21.0;;;13.0;;
22675;SDS011;12521;43.310;21.876;2022-10-23T12:56:39;21.0;;;13.0;;
22675;SDS011;12521;43.310;21.876;2022-10-23T13:01:29;18.0;;;12.0;;
22675;SDS011;12521;43.310;21.876;2022-10-23T13:06:11;18.0;;;12.0;;
22675;SDS011;12521;43.310;21.876;2022-10-23T13:10:49;15.0;;;12.0;;
22675;SDS011;12521;43.310;21.876;2022-10-23T13:15:39;15.0;;;12.0;;
22675;SDS011;12521;43.310;21.876;2022-10-23T13:20:27;15.0;;;12.0;;
22675;SDS011;12521;43.310;21.876;2022-10-23T13:25:30;14.0;;;10.0;;
22675;SDS011;12521;43.310;21.876;2022-10-23T13:30:33;14.0;;;10.0;;
22675;SDS011;12521;43.310;21.876;2022-10-23T13:35:22;13.0;;;9.0;;
22675;SDS011;12521;43.310;21.876;2022-10-23T13:40:06;13.0;;;9.0;;
22675;SDS011;12521;43.310;21.876;2022-10-23T13:45:00;13.0;;;10.0;;
22675;SDS011;12521;43.310;21.876;2022-10-23T13:49:36;13.0;;;10.0;;
22675;SDS011;12521;43.310;21.876;2022-10-23T13:54:20;13.0;;;11.0;;
22675;SDS011;12521;43.310;21.876;2022-10-23T13:59:03;13.0;;;11.0;;
22675;SDS011;12521;43.310;21.876;2022-10-23T14:03:40;14.0;;;11.0;;
22675;SDS011;12521;43.310;21.876;2022-10-23T14:08:18;14.0;;;11.0;;
22675;SDS011;12521;43.310;21.876;2022-10-23T14:12:55;14.0;;;11.0;;
22675;SDS011;12521;43.310;21.876;2022-10-23T14:17:35;14.0;;;11.0;;
22675;SDS011;12521;43.310;21.876;2022-10-23T14:22:13;14.0;;;10.0;;
22675;SDS011;12521;43.310;21.876;2022-10-23T14:26:50;14.0;;;10.0;;
22675;SDS011;12521;43.310;21.876;2022-10-23T14:31:27;14.0;;;10.0;;
22675;SDS011;12521;43.310;21.876;2022-10-23T14:36:06;14.0;;;10.0;;
22675;SDS011;12521;43.310;21.876;2022-10-23T14:40:46;14.0;;;10.0;;
22675;SDS011;12521;43.310;21.876;2022-10-23T14:45:23;14.0;;;11.0;;
22675;SDS011;12521;43.310;21.876;2022-10-23T14:50:00;14.0;;;11.0;;
22675;SDS011;12521;43.310;21.876;2022-10-23T14:54:37;14.0;;;12.0;;
22675;SDS011;12521;43.310;21.876;2022-10-23T14:59:14;14.0;;;12.0;;
22675;SDS011;12521;43.310;21.876;2022-10-23T15:03:50;15.0;;;12.0;;
22675;SDS011;12521;43.310;21.876;2022-10-23T15:08:27;15.0;;;12.0;;
22675;SDS011;12521;43.310;21.876;2022-10-23T15:13:03;16.0;;;11.0;;
22675;SDS011;12521;43.310;21.876;2022-10-23T15:17:40;16.0;;;11.0;;
22675;SDS011;12521;43.310;21.876;2022-10-23T15:22:17;22.0;;;16.0;;
22675;SDS011;12521;43.310;21.876;2022-10-23T15:26:54;22.0;;;16.0;;
22675;SDS011;12521;43.310;21.876;2022-10-23T15:31:56;28.0;;;21.0;;
22675;SDS011;12521;43.310;21.876;2022-10-23T15:36:35;28.0;;;21.0;;
22675;SDS011;12521;43.310;21.876;2022-10-23T15:41:26;30.0;;;24.0;;
22675;SDS011;12521;43.310;21.876;2022-10-23T15:46:06;30.0;;;24.0;;
22675;SDS011;12521;43.310;21.876;2022-10-23T15:50:43;30.0;;;24.0;;
22675;SDS011;12521;43.310;21.876;2022-10-23T15:55:19;33.0;;;28.0;;
22675;SDS011;12521;43.310;21.876;2022-10-23T15:59:56;33.0;;;28.0;;
22675;SDS011;12521;43.310;21.876;2022-10-23T16:04:33;38.0;;;32.0;;
22675;SDS011;12521;43.310;21.876;2022-10-23T16:09:10;38.0;;;32.0;;
22675;SDS011;12521;43.310;21.876;2022-10-23T16:13:48;44.0;;;36.0;;
22675;SDS011;12521;43.310;21.876;2022-10-23T16:18:25;44.0;;;36.0;;
22675;SDS011;12521;43.310;21.876;2022-10-23T16:23:02;53.0;;;42.0;;
22675;SDS011;12521;43.310;21.876;2022-10-23T16:27:38;53.0;;;42.0;;
22675;SDS011;12521;43.310;21.876;2022-10-23T16:32:15;62.0;;;49.0;;
22675;SDS011;12521;43.310;21.876;2022-10-23T16:36:52;62.0;;;49.0;;
22675;SDS011;12521;43.310;21.876;2022-10-23T16:41:28;63.0;;;52.0;;
22675;SDS011;12521;43.310;21.876;2022-10-23T16:46:14;63.0;;;52.0;;
22675;SDS011;12521;43.310;21.876;2022-10-23T16:50:57;63.0;;;52.0;;
22675;SDS011;12521;43.310;21.876;2022-10-23T16:55:39;64.0;;;54.0;;
22675;SDS011;12521;43.310;21.876;2022-10-23T17:00:17;64.0;;;54.0;;
22675;SDS011;12521;43.310;21.876;2022-10-23T17:04:54;64.0;;;54.0;;
22675;SDS011;12521;43.310;21.876;2022-10-23T17:09:32;64.0;;;54.0;;
22675;SDS011;12521;43.310;21.876;2022-10-23T17:14:16;65.0;;;55.0;;
22675;SDS011;12521;43.310;21.876;2022-10-23T17:18:56;65.0;;;55.0;;
22675;SDS011;12521;43.310;21.876;2022-10-23T17:23:34;62.0;;;50.0;;
22675;SDS011;12521;43.310;21.876;2022-10-23T17:28:11;62.0;;;50.0;;
22675;SDS011;12521;43.310;21.876;2022-10-23T17:32:48;60.0;;;46.0;;
22675;SDS011;12521;43.310;21.876;2022-10-23T17:37:25;60.0;;;46.0;;
22675;SDS011;12521;43.310;21.876;2022-10-23T17:42:01;57.0;;;44.0;;
22675;SDS011;12521;43.310;21.876;2022-10-23T17:46:39;57.0;;;44.0;;
22675;SDS011;12521;43.310;21.876;2022-10-23T17:51:21;54.0;;;42.0;;
22675;SDS011;12521;43.310;21.876;2022-10-23T17:56:04;54.0;;;42.0;;
22675;SDS011;12521;43.310;21.876;2022-10-23T18:00:45;54.0;;;42.0;;
22675;SDS011;12521;43.310;21.876;2022-10-23T18:05:21;51.0;;;41.0;;
22675;SDS011;12521;43.310;21.876;2022-10-23T18:09:58;51.0;;;41.0;;
22675;SDS011;12521;43.310;21.876;2022-10-23T18:14:36;48.0;;;40.0;;
22675;SDS011;12521;43.310;21.876;2022-10-23T18:19:16;48.0;;;40.0;;
22675;SDS011;12521;43.310;21.876;2022-10-23T18:23:53;54.0;;;44.0;;
22675;SDS011;12521;43.310;21.876;2022-10-23T18:28:31;54.0;;;44.0;;
22675;SDS011;12521;43.310;21.876;2022-10-23T18:33:08;61.0;;;48.0;;
22675;SDS011;12521;43.310;21.876;2022-10-23T18:37:45;61.0;;;48.0;;
22675;SDS011;12521;43.310;21.876;2022-10-23T18:42:21;65.0;;;50.0;;
22675;SDS011;12521;43.310;21.876;2022-10-23T18:46:59;65.0;;;50.0;;
22675;SDS011;12521;43.310;21.876;2022-10-23T18:51:37;69.0;;;52.0;;
22675;SDS011;12521;43.310;21.876;2022-10-23T18:56:21;69.0;;;52.0;;
22675;SDS011;12521;43.310;21.876;2022-10-23T19:01:00;69.0;;;52.0;;
22675;SDS011;12521;43.310;21.876;2022-10-23T19:05:41;62.0;;;50.0;;
22675;SDS011;12521;43.310;21.876;2022-10-23T19:10:24;62.0;;;50.0;;
22675;SDS011;12521;43.310;21.876;2022-10-23T19:15:08;56.0;;;48.0;;
22675;SDS011;12521;43.310;21.876;2022-10-23T19:19:56;56.0;;;48.0;;
22675;SDS011;12521;43.310;21.876;2022-10-23T19:24:52;52.0;;;44.0;;
22675;SDS011;12521;43.310;21.876;2022-10-23T19:29:46;52.0;;;44.0;;
22675;SDS011;12521;43.310;21.876;2022-10-23T19:34:27;48.0;;;40.0;;
22675;SDS011;12521;43.310;21.876;2022-10-23T19:39:04;48.0;;;40.0;;
22675;SDS011;12521;43.310;21.876;2022-10-23T19:43:41;46.0;;;39.0;;
22675;SDS011;12521;43.310;21.876;2022-10-23T19:48:18;46.0;;;39.0;;
22675;SDS011;12521;43.310;21.876;2022-10-23T19:52:55;45.0;;;38.0;;
22675;SDS011;12521;43.310;21.876;2022-10-23T19:57:32;45.0;;;38.0;;
22675;SDS011;12521;43.310;21.876;2022-10-23T20:02:11;50.0;;;42.0;;
22675;SDS011;12521;43.310;21.876;2022-10-23T20:06:48;50.0;;;42.0;;
22675;SDS011;12521;43.310;21.876;2022-10-23T20:11:30;56.0;;;45.0;;
22675;SDS011;12521;43.310;21.876;2022-10-23T20:16:07;56.0;;;45.0;;
22675;SDS011;12521;43.310;21.876;2022-10-23T20:20:44;56.0;;;45.0;;
22675;SDS011;12521;43.310;21.876;2022-10-23T20:25:20;48.0;;;39.0;;
22675;SDS011;12521;43.310;21.876;2022-10-23T20:29:57;48.0;;;39.0;;
22675;SDS011;12521;43.310;21.876;2022-10-23T20:34:34;40.0;;;33.0;;
22675;SDS011;12521;43.310;21.876;2022-10-23T20:39:17;40.0;;;33.0;;
22675;SDS011;12521;43.310;21.876;2022-10-23T20:43:56;42.0;;;35.0;;
22675;SDS011;12521;43.310;21.876;2022-10-23T20:48:35;42.0;;;35.0;;
22675;SDS011;12521;43.310;21.876;2022-10-23T20:53:16;44.0;;;37.0;;
22675;SDS011;12521;43.310;21.876;2022-10-23T20:57:53;44.0;;;37.0;;
22675;SDS011;12521;43.310;21.876;2022-10-23T21:02:29;46.0;;;37.0;;
22675;SDS011;12521;43.310;21.876;2022-10-23T21:07:05;46.0;;;37.0;;
22675;SDS011;12521;43.310;21.876;2022-10-23T21:11:42;48.0;;;37.0;;
22675;SDS011;12521;43.310;21.876;2022-10-23T21:16:22;48.0;;;37.0;;
22675;SDS011;12521;43.310;21.876;2022-10-23T21:21:05;48.0;;;37.0;;
22675;SDS011;12521;43.310;21.876;2022-10-23T21:25:42;46.0;;;35.0;;
22675;SDS011;12521;43.310;21.876;2022-10-23T21:30:19;46.0;;;35.0;;
22675;SDS011;12521;43.310;21.876;2022-10-23T21:34:56;43.0;;;33.0;;
22675;SDS011;12521;43.310;21.876;2022-10-23T21:39:32;43.0;;;33.0;;
22675;SDS011;12521;43.310;21.876;2022-10-23T21:44:12;42.0;;;32.0;;
22675;SDS011;12521;43.310;21.876;2022-10-23T21:48:49;42.0;;;32.0;;
22675;SDS011;12521;43.310;21.876;2022-10-23T21:53:28;40.0;;;32.0;;
22675;SDS011;12521;43.310;21.876;2022-10-23T21:58:05;40.0;;;32.0;;
22675;SDS011;12521;43.310;21.876;2022-10-23T22:02:44;40.0;;;34.0;;
22675;SDS011;12521;43.310;21.876;2022-10-23T22:07:20;40.0;;;34.0;;
22675;SDS011;12521;43.310;21.876;2022-10-23T22:11:58;41.0;;;35.0;;
22675;SDS011;12521;43.310;21.876;2022-10-23T22:16:36;41.0;;;35.0;;
22675;SDS011;12521;43.310;21.876;2022-10-23T22:21:17;41.0;;;35.0;;
22675;SDS011;12521;43.310;21.876;2022-10-23T22:26:04;44.0;;;35.0;;
22675;SDS011;12521;43.310;21.876;2022-10-23T22:31:00;44.0;;;35.0;;
22675;SDS011;12521;43.310;21.876;2022-10-23T22:35:37;47.0;;;35.0;;
22675;SDS011;12521;43.310;21.876;2022-10-23T22:40:15;47.0;;;35.0;;
22675;SDS011;12521;43.310;21.876;2022-10-23T22:44:52;45.0;;;34.0;;
22675;SDS011;12521;43.310;21.876;2022-10-23T22:49:28;45.0;;;34.0;;
22675;SDS011;12521;43.310;21.876;2022-10-23T22:54:06;43.0;;;34.0;;
22675;SDS011;12521;43.310;21.876;2022-10-23T22:58:44;43.0;;;34.0;;
22675;SDS011;12521;43.310;21.876;2022-10-23T23:03:22;40.0;;;32.0;;
22675;SDS011;12521;43.310;21.876;2022-10-23T23:07:59;40.0;;;32.0;;
22675;SDS011;12521;43.310;21.876;2022-10-23T23:12:36;36.0;;;29.0;;
22675;SDS011;12521;43.310;21.876;2022-10-23T23:17:12;36.0;;;29.0;;
22675;SDS011;12521;43.310;21.876;2022-10-23T23:21:49;38.0;;;29.0;;
22675;SDS011;12521;43.310;21.876;2022-10-23T23:26:26;38.0;;;29.0;;
22675;SDS011;12521;43.310;21.876;2022-10-23T23:31:08;38.0;;;29.0;;
22675;SDS011;12521;43.310;21.876;2022-10-23T23:35:57;39.0;;;29.0;;
22675;SDS011;12521;43.310;21.876;2022-10-23T23:40:35;39.0;;;29.0;;
22675;SDS011;12521;43.310;21.876;2022-10-23T23:45:12;37.0;;;30.0;;
22675;SDS011;12521;43.310;21.876;2022-10-23T23:49:49;37.0;;;30.0;;
22675;SDS011;12521;43.310;21.876;2022-10-23T23:54:26;35.0;;;31.0;;
22675;SDS011;12521;43.310;21.876;2022-10-23T23:59:03;35.0;;;31.0;;
